sensor_id;sensor_type;location;lat;lon;timestamp;temperature;humidity
12254;DHT22;6189;52.526;13.390;2022-11-12T00:02:23;11.50;99.90
12254;DHT22;6189;52.526;13.390;2022-11-12T00:05:08;11.50;99.90
12254;DHT22;6189;52.526;13.390;2022-11-12T00:07:55;11.50;99.90
12254;DHT22;6189;52.526;13.390;2022-11-12T00:10:41;11.50;99.90
12254;DHT22;6189;52.526;13.390;2022-11-12T00:13:26;11.50;99.90
12254;DHT22;6189;52.526;13.390;2022-11-12T00:16:12;11.50;99.90
12254;DHT22;6189;52.526;13.390;2022-11-12T00:18:57;11.40;99.90
12254;DHT22;6189;52.526;13.390;2022-11-12T00:21:43;11.50;99.90
12254;DHT22;6189;52.526;13.390;2022-11-12T00:24:30;11.40;99.90
12254;DHT22;6189;52.526;13.390;2022-11-12T00:27:15;11.40;99.90
12254;DHT22;6189;52.526;13.390;2022-11-12T00:30:01;11.30;99.90
12254;DHT22;6189;52.526;13.390;2022-11-12T00:32:46;11.30;99.90
12254;DHT22;6189;52.526;13.390;2022-11-12T00:35:32;11.30;99.90
12254;DHT22;6189;52.526;13.390;2022-11-12T00:38:18;11.10;99.90
12254;DHT22;6189;52.526;13.390;2022-11-12T00:41:05;11.20;99.90
12254;DHT22;6189;52.526;13.390;2022-11-12T00:43:51;11.20;99.90
12254;DHT22;6189;52.526;13.390;2022-11-12T00:46:36;11.20;99.90
12254;DHT22;6189;52.526;13.390;2022-11-12T00:49:22;11.30;99.90
12254;DHT22;6189;52.526;13.390;2022-11-12T00:52:07;11.30;99.90
12254;DHT22;6189;52.526;13.390;2022-11-12T00:54:52;11.30;99.90
12254;DHT22;6189;52.526;13.390;2022-11-12T00:57:39;11.30;99.90
12254;DHT22;6189;52.526;13.390;2022-11-12T01:00:25;11.30;99.90
12254;DHT22;6189;52.526;13.390;2022-11-12T01:03:10;11.30;99.90
12254;DHT22;6189;52.526;13.390;2022-11-12T01:06:01;11.30;99.90
12254;DHT22;6189;52.526;13.390;2022-11-12T01:08:47;11.30;99.90
12254;DHT22;6189;52.526;13.390;2022-11-12T01:11:33;11.30;99.90
12254;DHT22;6189;52.526;13.390;2022-11-12T01:14:20;11.30;99.90
12254;DHT22;6189;52.526;13.390;2022-11-12T01:17:06;11.40;99.90
12254;DHT22;6189;52.526;13.390;2022-11-12T01:19:52;11.20;99.90
12254;DHT22;6189;52.526;13.390;2022-11-12T01:22:37;11.30;99.90
12254;DHT22;6189;52.526;13.390;2022-11-12T01:25:23;11.40;99.90
12254;DHT22;6189;52.526;13.390;2022-11-12T01:28:08;11.30;99.90
12254;DHT22;6189;52.526;13.390;2022-11-12T01:30:55;11.20;99.90
12254;DHT22;6189;52.526;13.390;2022-11-12T01:33:42;11.20;99.90
12254;DHT22;6189;52.526;13.390;2022-11-12T01:36:32;11.20;99.90
12254;DHT22;6189;52.526;13.390;2022-11-12T01:39:18;11.10;99.90
12254;DHT22;6189;52.526;13.390;2022-11-12T01:42:03;11.10;99.90
12254;DHT22;6189;52.526;13.390;2022-11-12T01:44:51;11.20;99.90
12254;DHT22;6189;52.526;13.390;2022-11-12T01:47:38;11.10;99.90
12254;DHT22;6189;52.526;13.390;2022-11-12T01:50:26;11.10;99.90
12254;DHT22;6189;52.526;13.390;2022-11-12T01:53:13;11.20;99.90
12254;DHT22;6189;52.526;13.390;2022-11-12T01:55:59;11.10;99.90
12254;DHT22;6189;52.526;13.390;2022-11-12T01:58:51;11.10;99.90
12254;DHT22;6189;52.526;13.390;2022-11-12T02:01:38;11.10;99.90
12254;DHT22;6189;52.526;13.390;2022-11-12T02:04:25;11.00;99.90
12254;DHT22;6189;52.526;13.390;2022-11-12T02:07:11;11.00;99.90
12254;DHT22;6189;52.526;13.390;2022-11-12T02:09:58;11.00;99.90
12254;DHT22;6189;52.526;13.390;2022-11-12T02:12:45;11.00;99.90
12254;DHT22;6189;52.526;13.390;2022-11-12T02:15:49;11.00;99.90
12254;DHT22;6189;52.526;13.390;2022-11-12T02:18:35;10.90;99.90
12254;DHT22;6189;52.526;13.390;2022-11-12T02:21:22;10.90;99.90
12254;DHT22;6189;52.526;13.390;2022-11-12T02:24:33;10.90;99.90
12254;DHT22;6189;52.526;13.390;2022-11-12T02:27:20;10.80;99.90
12254;DHT22;6189;52.526;13.390;2022-11-12T02:30:07;10.90;99.90
12254;DHT22;6189;52.526;13.390;2022-11-12T02:32:52;10.90;99.90
12254;DHT22;6189;52.526;13.390;2022-11-12T02:35:37;10.90;99.90
12254;DHT22;6189;52.526;13.390;2022-11-12T02:38:24;10.90;99.90
12254;DHT22;6189;52.526;13.390;2022-11-12T02:41:12;10.90;99.90
12254;DHT22;6189;52.526;13.390;2022-11-12T02:43:58;10.90;99.90
12254;DHT22;6189;52.526;13.390;2022-11-12T02:46:43;10.80;99.90
12254;DHT22;6189;52.526;13.390;2022-11-12T02:49:29;10.70;99.90
12254;DHT22;6189;52.526;13.390;2022-11-12T02:52:14;10.70;99.90
12254;DHT22;6189;52.526;13.390;2022-11-12T02:55:01;10.70;99.90
12254;DHT22;6189;52.526;13.390;2022-11-12T02:57:47;10.70;99.90
12254;DHT22;6189;52.526;13.390;2022-11-12T03:00:32;10.60;99.90
12254;DHT22;6189;52.526;13.390;2022-11-12T03:03:18;10.60;99.90
12254;DHT22;6189;52.526;13.390;2022-11-12T03:06:04;10.60;99.90
12254;DHT22;6189;52.526;13.390;2022-11-12T03:08:49;10.60;99.90
12254;DHT22;6189;52.526;13.390;2022-11-12T03:11:36;10.60;99.90
12254;DHT22;6189;52.526;13.390;2022-11-12T03:14:22;10.60;99.90
12254;DHT22;6189;52.526;13.390;2022-11-12T03:17:08;10.60;99.90
12254;DHT22;6189;52.526;13.390;2022-11-12T03:19:53;10.70;99.90
12254;DHT22;6189;52.526;13.390;2022-11-12T03:22:39;10.70;99.90
12254;DHT22;6189;52.526;13.390;2022-11-12T03:25:25;10.70;99.90
12254;DHT22;6189;52.526;13.390;2022-11-12T03:28:14;10.70;99.90
12254;DHT22;6189;52.526;13.390;2022-11-12T03:31:00;10.60;99.90
12254;DHT22;6189;52.526;13.390;2022-11-12T03:33:46;10.60;99.90
12254;DHT22;6189;52.526;13.390;2022-11-12T03:36:31;10.70;99.90
12254;DHT22;6189;52.526;13.390;2022-11-12T03:39:17;10.70;99.90
12254;DHT22;6189;52.526;13.390;2022-11-12T03:42:03;10.70;99.90
12254;DHT22;6189;52.526;13.390;2022-11-12T03:44:50;10.70;99.90
12254;DHT22;6189;52.526;13.390;2022-11-12T03:47:35;10.70;99.90
12254;DHT22;6189;52.526;13.390;2022-11-12T03:50:26;10.80;99.90
12254;DHT22;6189;52.526;13.390;2022-11-12T03:53:11;10.80;99.90
12254;DHT22;6189;52.526;13.390;2022-11-12T03:55:57;10.70;99.90
12254;DHT22;6189;52.526;13.390;2022-11-12T03:58:42;10.80;99.90
12254;DHT22;6189;52.526;13.390;2022-11-12T04:01:29;10.70;99.90
12254;DHT22;6189;52.526;13.390;2022-11-12T04:04:14;10.70;99.90
12254;DHT22;6189;52.526;13.390;2022-11-12T04:07:00;10.70;99.90
12254;DHT22;6189;52.526;13.390;2022-11-12T04:10:14;10.70;99.90
12254;DHT22;6189;52.526;13.390;2022-11-12T04:13:00;10.70;99.90
12254;DHT22;6189;52.526;13.390;2022-11-12T04:16:06;10.70;99.90
12254;DHT22;6189;52.526;13.390;2022-11-12T04:19:12;10.70;99.90
12254;DHT22;6189;52.526;13.390;2022-11-12T04:22:15;10.70;99.90
12254;DHT22;6189;52.526;13.390;2022-11-12T04:25:01;10.60;99.90
12254;DHT22;6189;52.526;13.390;2022-11-12T04:28:04;10.60;99.90
12254;DHT22;6189;52.526;13.390;2022-11-12T04:30:50;10.60;99.90
12254;DHT22;6189;52.526;13.390;2022-11-12T04:33:34;10.50;99.90
12254;DHT22;6189;52.526;13.390;2022-11-12T04:36:22;10.50;99.90
12254;DHT22;6189;52.526;13.390;2022-11-12T04:39:07;10.50;99.90
12254;DHT22;6189;52.526;13.390;2022-11-12T04:41:52;10.40;99.90
12254;DHT22;6189;52.526;13.390;2022-11-12T04:44:56;10.40;99.90
12254;DHT22;6189;52.526;13.390;2022-11-12T04:47:46;10.40;99.90
12254;DHT22;6189;52.526;13.390;2022-11-12T04:50:31;10.50;99.90
12254;DHT22;6189;52.526;13.390;2022-11-12T04:53:18;10.40;99.90
12254;DHT22;6189;52.526;13.390;2022-11-12T04:56:04;10.40;99.90
12254;DHT22;6189;52.526;13.390;2022-11-12T04:58:49;10.50;99.90
12254;DHT22;6189;52.526;13.390;2022-11-12T05:01:34;10.50;99.90
12254;DHT22;6189;52.526;13.390;2022-11-12T05:04:20;10.50;99.90
12254;DHT22;6189;52.526;13.390;2022-11-12T05:07:06;10.50;99.90
12254;DHT22;6189;52.526;13.390;2022-11-12T05:09:53;10.50;99.90
12254;DHT22;6189;52.526;13.390;2022-11-12T05:12:38;10.40;99.90
12254;DHT22;6189;52.526;13.390;2022-11-12T05:15:24;10.40;99.90
12254;DHT22;6189;52.526;13.390;2022-11-12T05:18:09;10.40;99.90
12254;DHT22;6189;52.526;13.390;2022-11-12T05:20:55;10.40;99.90
12254;DHT22;6189;52.526;13.390;2022-11-12T05:23:41;10.40;99.90
12254;DHT22;6189;52.526;13.390;2022-11-12T05:26:26;10.50;99.90
12254;DHT22;6189;52.526;13.390;2022-11-12T05:29:12;10.40;99.90
12254;DHT22;6189;52.526;13.390;2022-11-12T05:31:58;10.40;99.90
12254;DHT22;6189;52.526;13.390;2022-11-12T05:34:43;10.40;99.90
12254;DHT22;6189;52.526;13.390;2022-11-12T05:37:29;10.50;99.90
12254;DHT22;6189;52.526;13.390;2022-11-12T05:40:15;10.50;99.90
12254;DHT22;6189;52.526;13.390;2022-11-12T05:43:03;10.50;99.90
12254;DHT22;6189;52.526;13.390;2022-11-12T05:45:49;10.50;99.90
12254;DHT22;6189;52.526;13.390;2022-11-12T05:48:34;10.50;99.90
12254;DHT22;6189;52.526;13.390;2022-11-12T05:51:20;10.50;99.90
12254;DHT22;6189;52.526;13.390;2022-11-12T05:54:05;10.50;99.90
12254;DHT22;6189;52.526;13.390;2022-11-12T05:56:51;10.50;99.90
12254;DHT22;6189;52.526;13.390;2022-11-12T05:59:38;10.60;99.90
12254;DHT22;6189;52.526;13.390;2022-11-12T06:02:24;10.40;99.90
12254;DHT22;6189;52.526;13.390;2022-11-12T06:05:10;10.30;99.90
12254;DHT22;6189;52.526;13.390;2022-11-12T06:07:55;10.30;99.90
12254;DHT22;6189;52.526;13.390;2022-11-12T06:10:41;10.30;99.90
12254;DHT22;6189;52.526;13.390;2022-11-12T06:13:26;10.30;99.90
12254;DHT22;6189;52.526;13.390;2022-11-12T06:16:13;10.30;99.90
12254;DHT22;6189;52.526;13.390;2022-11-12T06:18:59;10.40;99.90
12254;DHT22;6189;52.526;13.390;2022-11-12T06:21:44;10.30;99.90
12254;DHT22;6189;52.526;13.390;2022-11-12T06:24:50;10.40;99.90
12254;DHT22;6189;52.526;13.390;2022-11-12T06:27:36;10.40;99.90
12254;DHT22;6189;52.526;13.390;2022-11-12T06:30:21;10.40;99.90
12254;DHT22;6189;52.526;13.390;2022-11-12T06:33:08;10.40;99.90
12254;DHT22;6189;52.526;13.390;2022-11-12T06:35:57;10.30;99.90
12254;DHT22;6189;52.526;13.390;2022-11-12T06:38:46;10.40;99.90
12254;DHT22;6189;52.526;13.390;2022-11-12T06:41:31;10.30;99.90
12254;DHT22;6189;52.526;13.390;2022-11-12T06:44:16;10.20;99.90
12254;DHT22;6189;52.526;13.390;2022-11-12T06:47:02;10.30;99.90
12254;DHT22;6189;52.526;13.390;2022-11-12T06:49:49;10.20;99.90
12254;DHT22;6189;52.526;13.390;2022-11-12T06:52:34;10.20;99.90
12254;DHT22;6189;52.526;13.390;2022-11-12T06:55:20;10.30;99.90
12254;DHT22;6189;52.526;13.390;2022-11-12T06:58:06;10.20;99.90
12254;DHT22;6189;52.526;13.390;2022-11-12T07:00:51;10.20;99.90
12254;DHT22;6189;52.526;13.390;2022-11-12T07:03:37;10.20;99.90
12254;DHT22;6189;52.526;13.390;2022-11-12T07:06:24;10.20;99.90
12254;DHT22;6189;52.526;13.390;2022-11-12T07:09:10;10.20;99.90
12254;DHT22;6189;52.526;13.390;2022-11-12T07:11:56;10.10;99.90
12254;DHT22;6189;52.526;13.390;2022-11-12T07:14:41;10.20;99.90
12254;DHT22;6189;52.526;13.390;2022-11-12T07:17:27;10.20;99.90
12254;DHT22;6189;52.526;13.390;2022-11-12T07:20:12;10.10;99.90
12254;DHT22;6189;52.526;13.390;2022-11-12T07:23:00;10.20;99.90
12254;DHT22;6189;52.526;13.390;2022-11-12T07:25:46;10.40;99.90
12254;DHT22;6189;52.526;13.390;2022-11-12T07:28:31;10.20;99.90
12254;DHT22;6189;52.526;13.390;2022-11-12T07:31:19;10.30;99.90
12254;DHT22;6189;52.526;13.390;2022-11-12T07:34:04;10.30;99.90
12254;DHT22;6189;52.526;13.390;2022-11-12T07:36:50;10.40;99.90
12254;DHT22;6189;52.526;13.390;2022-11-12T07:39:37;10.60;99.90
12254;DHT22;6189;52.526;13.390;2022-11-12T07:42:22;10.50;99.90
12254;DHT22;6189;52.526;13.390;2022-11-12T07:45:08;10.50;99.90
12254;DHT22;6189;52.526;13.390;2022-11-12T07:47:54;10.50;99.90
12254;DHT22;6189;52.526;13.390;2022-11-12T07:50:42;10.50;99.90
12254;DHT22;6189;52.526;13.390;2022-11-12T07:53:28;10.40;99.90
12254;DHT22;6189;52.526;13.390;2022-11-12T07:56:17;10.50;99.90
12254;DHT22;6189;52.526;13.390;2022-11-12T07:59:03;10.50;99.90
12254;DHT22;6189;52.526;13.390;2022-11-12T08:01:51;10.50;99.90
12254;DHT22;6189;52.526;13.390;2022-11-12T08:04:36;10.60;99.90
12254;DHT22;6189;52.526;13.390;2022-11-12T08:07:22;10.60;99.90
12254;DHT22;6189;52.526;13.390;2022-11-12T08:10:09;10.50;99.90
12254;DHT22;6189;52.526;13.390;2022-11-12T08:12:56;10.50;99.90
12254;DHT22;6189;52.526;13.390;2022-11-12T08:15:41;10.50;99.90
12254;DHT22;6189;52.526;13.390;2022-11-12T08:18:27;10.50;99.90
12254;DHT22;6189;52.526;13.390;2022-11-12T08:21:15;10.60;99.90
12254;DHT22;6189;52.526;13.390;2022-11-12T08:24:01;10.60;99.90
12254;DHT22;6189;52.526;13.390;2022-11-12T08:26:47;10.50;99.90
12254;DHT22;6189;52.526;13.390;2022-11-12T08:29:34;10.50;99.90
12254;DHT22;6189;52.526;13.390;2022-11-12T08:32:20;10.50;99.90
12254;DHT22;6189;52.526;13.390;2022-11-12T08:35:05;10.60;99.90
12254;DHT22;6189;52.526;13.390;2022-11-12T08:37:51;10.60;99.90
12254;DHT22;6189;52.526;13.390;2022-11-12T08:40:37;10.60;99.90
12254;DHT22;6189;52.526;13.390;2022-11-12T08:43:22;10.60;99.90
12254;DHT22;6189;52.526;13.390;2022-11-12T08:46:09;10.60;99.90
12254;DHT22;6189;52.526;13.390;2022-11-12T08:48:55;10.50;99.90
12254;DHT22;6189;52.526;13.390;2022-11-12T08:51:40;10.60;99.90
12254;DHT22;6189;52.526;13.390;2022-11-12T08:54:26;10.60;99.90
12254;DHT22;6189;52.526;13.390;2022-11-12T08:57:11;10.80;99.90
12254;DHT22;6189;52.526;13.390;2022-11-12T08:59:57;10.70;99.90
12254;DHT22;6189;52.526;13.390;2022-11-12T09:02:44;10.70;99.90
12254;DHT22;6189;52.526;13.390;2022-11-12T09:05:29;10.80;99.90
12254;DHT22;6189;52.526;13.390;2022-11-12T09:08:17;10.90;99.90
12254;DHT22;6189;52.526;13.390;2022-11-12T09:11:03;11.00;99.90
12254;DHT22;6189;52.526;13.390;2022-11-12T09:13:51;11.00;99.90
12254;DHT22;6189;52.526;13.390;2022-11-12T09:16:37;11.00;99.90
12254;DHT22;6189;52.526;13.390;2022-11-12T09:19:24;11.10;99.90
12254;DHT22;6189;52.526;13.390;2022-11-12T09:22:10;11.10;99.90
12254;DHT22;6189;52.526;13.390;2022-11-12T09:24:55;11.20;99.90
12254;DHT22;6189;52.526;13.390;2022-11-12T09:27:40;11.30;99.90
12254;DHT22;6189;52.526;13.390;2022-11-12T09:30:26;11.30;99.90
12254;DHT22;6189;52.526;13.390;2022-11-12T09:33:12;11.40;99.90
12254;DHT22;6189;52.526;13.390;2022-11-12T09:36:01;11.30;99.90
12254;DHT22;6189;52.526;13.390;2022-11-12T09:38:47;11.40;99.90
12254;DHT22;6189;52.526;13.390;2022-11-12T09:41:35;11.50;99.90
12254;DHT22;6189;52.526;13.390;2022-11-12T09:44:22;11.50;99.90
12254;DHT22;6189;52.526;13.390;2022-11-12T09:47:12;11.60;99.90
12254;DHT22;6189;52.526;13.390;2022-11-12T09:50:04;11.70;99.90
12254;DHT22;6189;52.526;13.390;2022-11-12T09:53:00;11.80;99.90
12254;DHT22;6189;52.526;13.390;2022-11-12T09:55:48;11.90;99.90
12254;DHT22;6189;52.526;13.390;2022-11-12T09:58:34;11.90;99.90
12254;DHT22;6189;52.526;13.390;2022-11-12T10:01:23;12.00;99.90
12254;DHT22;6189;52.526;13.390;2022-11-12T10:04:36;12.10;99.90
12254;DHT22;6189;52.526;13.390;2022-11-12T10:07:35;12.20;99.90
12254;DHT22;6189;52.526;13.390;2022-11-12T10:10:31;12.20;99.90
12254;DHT22;6189;52.526;13.390;2022-11-12T10:13:29;12.20;99.90
12254;DHT22;6189;52.526;13.390;2022-11-12T10:16:27;12.30;99.90
12254;DHT22;6189;52.526;13.390;2022-11-12T10:19:40;12.40;99.90
12254;DHT22;6189;52.526;13.390;2022-11-12T10:22:46;12.50;99.90
12254;DHT22;6189;52.526;13.390;2022-11-12T10:25:35;12.40;99.90
12254;DHT22;6189;52.526;13.390;2022-11-12T10:28:27;12.40;99.90
12254;DHT22;6189;52.526;13.390;2022-11-12T10:31:15;12.50;99.90
12254;DHT22;6189;52.526;13.390;2022-11-12T10:34:13;12.60;99.90
12254;DHT22;6189;52.526;13.390;2022-11-12T10:37:04;12.70;99.90
12254;DHT22;6189;52.526;13.390;2022-11-12T10:39:50;12.80;99.90
12254;DHT22;6189;52.526;13.390;2022-11-12T10:42:55;12.80;99.90
12254;DHT22;6189;52.526;13.390;2022-11-12T10:45:41;12.80;99.90
12254;DHT22;6189;52.526;13.390;2022-11-12T10:48:28;12.80;99.90
12254;DHT22;6189;52.526;13.390;2022-11-12T10:51:24;12.90;99.90
12254;DHT22;6189;52.526;13.390;2022-11-12T10:54:25;13.00;99.90
12254;DHT22;6189;52.526;13.390;2022-11-12T10:57:20;13.10;99.90
12254;DHT22;6189;52.526;13.390;2022-11-12T11:00:19;13.10;99.90
12254;DHT22;6189;52.526;13.390;2022-11-12T11:03:13;13.20;99.90
12254;DHT22;6189;52.526;13.390;2022-11-12T11:06:01;13.10;99.90
12254;DHT22;6189;52.526;13.390;2022-11-12T11:08:49;13.10;99.90
12254;DHT22;6189;52.526;13.390;2022-11-12T11:11:34;13.20;99.90
12254;DHT22;6189;52.526;13.390;2022-11-12T11:14:26;13.30;99.90
12254;DHT22;6189;52.526;13.390;2022-11-12T11:17:17;13.30;99.90
12254;DHT22;6189;52.526;13.390;2022-11-12T11:20:04;13.40;99.90
12254;DHT22;6189;52.526;13.390;2022-11-12T11:22:54;13.50;99.90
12254;DHT22;6189;52.526;13.390;2022-11-12T11:25:42;13.50;99.90
12254;DHT22;6189;52.526;13.390;2022-11-12T11:28:32;13.50;99.90
12254;DHT22;6189;52.526;13.390;2022-11-12T11:31:28;13.50;99.90
12254;DHT22;6189;52.526;13.390;2022-11-12T11:34:27;13.60;99.90
12254;DHT22;6189;52.526;13.390;2022-11-12T11:37:23;13.70;99.90
12254;DHT22;6189;52.526;13.390;2022-11-12T11:40:17;13.60;99.90
12254;DHT22;6189;52.526;13.390;2022-11-12T11:43:27;13.60;99.90
12254;DHT22;6189;52.526;13.390;2022-11-12T11:46:19;13.60;99.90
12254;DHT22;6189;52.526;13.390;2022-11-12T11:49:41;13.50;99.90
12254;DHT22;6189;52.526;13.390;2022-11-12T11:52:43;13.60;99.90
12254;DHT22;6189;52.526;13.390;2022-11-12T11:55:37;13.60;99.90
12254;DHT22;6189;52.526;13.390;2022-11-12T11:58:42;13.60;99.90
12254;DHT22;6189;52.526;13.390;2022-11-12T12:01:41;13.70;99.90
12254;DHT22;6189;52.526;13.390;2022-11-12T12:04:49;13.70;99.90
12254;DHT22;6189;52.526;13.390;2022-11-12T12:07:40;13.80;99.90
12254;DHT22;6189;52.526;13.390;2022-11-12T12:10:38;13.70;99.90
12254;DHT22;6189;52.526;13.390;2022-11-12T12:13:34;13.70;99.90
12254;DHT22;6189;52.526;13.390;2022-11-12T12:19:40;13.70;99.90
12254;DHT22;6189;52.526;13.390;2022-11-12T12:22:35;13.70;99.90
12254;DHT22;6189;52.526;13.390;2022-11-12T12:25:25;13.60;99.90
12254;DHT22;6189;52.526;13.390;2022-11-12T12:28:20;13.80;99.90
12254;DHT22;6189;52.526;13.390;2022-11-12T12:31:13;13.80;99.90
12254;DHT22;6189;52.526;13.390;2022-11-12T12:34:03;13.80;99.90
12254;DHT22;6189;52.526;13.390;2022-11-12T12:36:53;13.80;99.90
12254;DHT22;6189;52.526;13.390;2022-11-12T12:39:45;13.80;99.90
12254;DHT22;6189;52.526;13.390;2022-11-12T12:42:36;13.80;99.90
12254;DHT22;6189;52.526;13.390;2022-11-12T12:45:33;13.80;99.90
12254;DHT22;6189;52.526;13.390;2022-11-12T12:48:23;13.80;99.90
12254;DHT22;6189;52.526;13.390;2022-11-12T12:51:10;13.70;99.90
12254;DHT22;6189;52.526;13.390;2022-11-12T12:53:56;13.80;99.90
12254;DHT22;6189;52.526;13.390;2022-11-12T12:56:45;13.80;99.90
12254;DHT22;6189;52.526;13.390;2022-11-12T12:59:31;13.80;99.90
12254;DHT22;6189;52.526;13.390;2022-11-12T13:02:20;13.80;99.90
12254;DHT22;6189;52.526;13.390;2022-11-12T13:05:19;13.80;99.90
12254;DHT22;6189;52.526;13.390;2022-11-12T13:08:08;13.70;99.90
12254;DHT22;6189;52.526;13.390;2022-11-12T13:10:54;13.70;99.90
12254;DHT22;6189;52.526;13.390;2022-11-12T13:13:43;13.70;99.90
12254;DHT22;6189;52.526;13.390;2022-11-12T13:16:57;13.70;99.90
12254;DHT22;6189;52.526;13.390;2022-11-12T13:19:46;13.70;99.90
12254;DHT22;6189;52.526;13.390;2022-11-12T13:22:52;13.70;99.90
12254;DHT22;6189;52.526;13.390;2022-11-12T13:25:38;13.70;99.90
12254;DHT22;6189;52.526;13.390;2022-11-12T13:28:23;13.60;99.90
12254;DHT22;6189;52.526;13.390;2022-11-12T13:31:24;13.70;99.90
12254;DHT22;6189;52.526;13.390;2022-11-12T13:34:21;13.80;99.90
12254;DHT22;6189;52.526;13.390;2022-11-12T13:37:17;13.80;99.90
12254;DHT22;6189;52.526;13.390;2022-11-12T13:40:09;13.80;99.90
12254;DHT22;6189;52.526;13.390;2022-11-12T13:43:02;13.80;99.90
12254;DHT22;6189;52.526;13.390;2022-11-12T13:45:51;13.70;99.90
12254;DHT22;6189;52.526;13.390;2022-11-12T13:48:40;13.70;99.90
12254;DHT22;6189;52.526;13.390;2022-11-12T13:51:34;13.60;99.90
12254;DHT22;6189;52.526;13.390;2022-11-12T13:54:27;13.70;99.90
12254;DHT22;6189;52.526;13.390;2022-11-12T13:57:25;13.70;99.90
12254;DHT22;6189;52.526;13.390;2022-11-12T14:00:24;13.80;99.90
12254;DHT22;6189;52.526;13.390;2022-11-12T14:03:16;13.70;99.90
12254;DHT22;6189;52.526;13.390;2022-11-12T14:06:05;13.60;99.90
12254;DHT22;6189;52.526;13.390;2022-11-12T14:09:05;13.60;99.90
12254;DHT22;6189;52.526;13.390;2022-11-12T14:12:06;13.60;99.90
12254;DHT22;6189;52.526;13.390;2022-11-12T14:15:12;13.60;99.90
12254;DHT22;6189;52.526;13.390;2022-11-12T14:18:04;13.60;99.90
12254;DHT22;6189;52.526;13.390;2022-11-12T14:20:52;13.60;99.90
12254;DHT22;6189;52.526;13.390;2022-11-12T14:23:37;13.60;99.90
12254;DHT22;6189;52.526;13.390;2022-11-12T14:26:34;13.50;99.90
12254;DHT22;6189;52.526;13.390;2022-11-12T14:29:20;13.60;99.90
12254;DHT22;6189;52.526;13.390;2022-11-12T14:32:08;13.50;99.90
12254;DHT22;6189;52.526;13.390;2022-11-12T14:34:54;13.50;99.90
12254;DHT22;6189;52.526;13.390;2022-11-12T14:37:45;13.50;99.90
12254;DHT22;6189;52.526;13.390;2022-11-12T14:40:34;13.50;99.90
12254;DHT22;6189;52.526;13.390;2022-11-12T14:43:28;13.50;99.90
12254;DHT22;6189;52.526;13.390;2022-11-12T14:46:21;13.50;99.90
12254;DHT22;6189;52.526;13.390;2022-11-12T14:49:17;13.50;99.90
12254;DHT22;6189;52.526;13.390;2022-11-12T14:52:08;13.60;99.90
12254;DHT22;6189;52.526;13.390;2022-11-12T14:54:56;13.50;99.90
12254;DHT22;6189;52.526;13.390;2022-11-12T14:57:43;13.50;99.90
12254;DHT22;6189;52.526;13.390;2022-11-12T15:00:38;13.50;99.90
12254;DHT22;6189;52.526;13.390;2022-11-12T15:03:29;13.50;99.90
12254;DHT22;6189;52.526;13.390;2022-11-12T15:06:20;13.50;99.90
12254;DHT22;6189;52.526;13.390;2022-11-12T15:09:06;13.50;99.90
12254;DHT22;6189;52.526;13.390;2022-11-12T15:11:52;13.40;99.90
12254;DHT22;6189;52.526;13.390;2022-11-12T15:14:37;13.50;99.90
12254;DHT22;6189;52.526;13.390;2022-11-12T15:17:28;13.40;99.90
12254;DHT22;6189;52.526;13.390;2022-11-12T15:20:17;13.40;99.90
12254;DHT22;6189;52.526;13.390;2022-11-12T15:23:04;13.40;99.90
12254;DHT22;6189;52.526;13.390;2022-11-12T15:25:56;13.30;99.90
12254;DHT22;6189;52.526;13.390;2022-11-12T15:28:57;13.30;99.90
12254;DHT22;6189;52.526;13.390;2022-11-12T15:31:44;13.30;99.90
12254;DHT22;6189;52.526;13.390;2022-11-12T15:34:44;13.30;99.90
12254;DHT22;6189;52.526;13.390;2022-11-12T15:37:34;13.20;99.90
12254;DHT22;6189;52.526;13.390;2022-11-12T15:40:26;13.20;99.90
12254;DHT22;6189;52.526;13.390;2022-11-12T15:43:14;13.20;99.90
12254;DHT22;6189;52.526;13.390;2022-11-12T15:46:01;13.20;99.90
12254;DHT22;6189;52.526;13.390;2022-11-12T15:48:46;13.20;99.90
12254;DHT22;6189;52.526;13.390;2022-11-12T15:51:32;13.10;99.90
12254;DHT22;6189;52.526;13.390;2022-11-12T15:54:17;13.10;99.90
12254;DHT22;6189;52.526;13.390;2022-11-12T15:57:06;13.10;99.90
12254;DHT22;6189;52.526;13.390;2022-11-12T15:59:56;13.10;99.90
12254;DHT22;6189;52.526;13.390;2022-11-12T16:02:43;13.10;99.90
12254;DHT22;6189;52.526;13.390;2022-11-12T16:05:30;13.10;99.90
12254;DHT22;6189;52.526;13.390;2022-11-12T16:08:16;13.10;99.90
12254;DHT22;6189;52.526;13.390;2022-11-12T16:11:02;13.10;99.90
12254;DHT22;6189;52.526;13.390;2022-11-12T16:14:12;13.10;99.90
12254;DHT22;6189;52.526;13.390;2022-11-12T16:16:58;13.10;99.90
12254;DHT22;6189;52.526;13.390;2022-11-12T16:19:44;13.00;99.90
12254;DHT22;6189;52.526;13.390;2022-11-12T16:22:29;13.00;99.90
12254;DHT22;6189;52.526;13.390;2022-11-12T16:25:15;13.00;99.90
12254;DHT22;6189;52.526;13.390;2022-11-12T16:28:01;12.90;99.90
12254;DHT22;6189;52.526;13.390;2022-11-12T16:30:49;12.90;99.90
12254;DHT22;6189;52.526;13.390;2022-11-12T16:33:35;12.90;99.90
12254;DHT22;6189;52.526;13.390;2022-11-12T16:36:21;12.90;99.90
12254;DHT22;6189;52.526;13.390;2022-11-12T16:39:09;12.80;99.90
12254;DHT22;6189;52.526;13.390;2022-11-12T16:41:55;12.80;99.90
12254;DHT22;6189;52.526;13.390;2022-11-12T16:44:41;12.80;99.90
12254;DHT22;6189;52.526;13.390;2022-11-12T16:47:28;12.80;99.90
12254;DHT22;6189;52.526;13.390;2022-11-12T16:50:15;12.70;99.90
12254;DHT22;6189;52.526;13.390;2022-11-12T16:53:01;12.70;99.90
12254;DHT22;6189;52.526;13.390;2022-11-12T16:55:47;12.90;99.90
12254;DHT22;6189;52.526;13.390;2022-11-12T16:58:32;12.70;99.90
12254;DHT22;6189;52.526;13.390;2022-11-12T17:01:23;12.60;99.90
12254;DHT22;6189;52.526;13.390;2022-11-12T17:04:11;12.60;99.90
12254;DHT22;6189;52.526;13.390;2022-11-12T17:06:58;12.60;99.90
12254;DHT22;6189;52.526;13.390;2022-11-12T17:09:44;12.60;99.90
12254;DHT22;6189;52.526;13.390;2022-11-12T17:12:30;12.60;99.90
12254;DHT22;6189;52.526;13.390;2022-11-12T17:15:15;12.50;99.90
12254;DHT22;6189;52.526;13.390;2022-11-12T17:18:01;12.50;99.90
12254;DHT22;6189;52.526;13.390;2022-11-12T17:20:48;12.50;99.90
12254;DHT22;6189;52.526;13.390;2022-11-12T17:23:34;12.50;99.90
12254;DHT22;6189;52.526;13.390;2022-11-12T17:26:20;12.50;99.90
12254;DHT22;6189;52.526;13.390;2022-11-12T17:29:06;12.40;99.90
12254;DHT22;6189;52.526;13.390;2022-11-12T17:31:51;12.40;99.90
12254;DHT22;6189;52.526;13.390;2022-11-12T17:34:36;12.40;99.90
12254;DHT22;6189;52.526;13.390;2022-11-12T17:37:24;12.40;99.90
12254;DHT22;6189;52.526;13.390;2022-11-12T17:40:10;12.40;99.90
12254;DHT22;6189;52.526;13.390;2022-11-12T17:42:55;12.30;99.90
12254;DHT22;6189;52.526;13.390;2022-11-12T17:45:48;12.30;99.90
12254;DHT22;6189;52.526;13.390;2022-11-12T17:48:35;12.30;99.90
12254;DHT22;6189;52.526;13.390;2022-11-12T17:51:23;12.30;99.90